Terminal Aerodrome Forecast
Issued by NWS

Home | Current Version | Previous Version | Text Only | Print | Product List | Glossary On
Versions: 1 2 3 4 5 6 7 8 9 10 11 12 13 14 15 16 17 18 19 20 21 22 23 24 25
000
FTUS43 KAPX 301738
TAFTVC
TAF
KTVC 301738Z 3018/3118 06007KT 6SM -SHSN OVC021
     FM301900 29005KT P6SM OVC025
     FM310000 00000KT P6SM OVC028
     FM310500 21003KT P6SM BKN025 OVC080
     FM310700 21004KT 5SM -SN OVC022
     FM311000 20007KT P6SM SCT025 OVC050=

USA.gov is the U.S. government's official web portal to all federal, state and local government web resources and services.